Time;durP1;ratioP1;P1;durP2;ratioP2;P2;SDS_P1;SDS_P2;PMS_P1;PMS_P2;Temp;Humidity;BMP_temperature;BMP_pressure;BME280_temperature;BME280_humidity;BME280_pressure;Samples;Min_cycle;Max_cycle;Signal;HPM_P1;HPM_P2
2021/07/28 00:00:40;;;;;;;2.83;1.30;;;21.30;99.90;;;;;;5075894;28;20415;-60
2021/07/28 00:03:07;;;;;;;2.40;1.40;;;21.40;99.90;;;;;;5075358;28;20420;-60
2021/07/28 00:05:34;;;;;;;1.60;1.13;;;21.30;99.90;;;;;;5075211;28;20412;-60
2021/07/28 00:08:10;;;;;;;1.50;1.10;;;21.40;99.90;;;;;;5075804;28;20504;-60
2021/07/28 00:10:36;;;;;;;2.15;1.30;;;21.50;99.90;;;;;;5070589;28;20422;-60
2021/07/28 00:13:05;;;;;;;1.80;1.20;;;21.40;99.90;;;;;;5070467;28;20450;-60
2021/07/28 00:15:32;;;;;;;1.40;1.10;;;21.50;99.90;;;;;;5072223;28;20437;-60
2021/07/28 00:18:01;;;;;;;1.48;1.10;;;21.60;99.90;;;;;;5071390;28;20422;-60
2021/07/28 00:23:12;;;;;;;1.70;1.10;;;21.50;99.90;;;;;;5070911;28;20435;-60
2021/07/28 00:23:14;;;;;;;1.90;1.25;;;21.50;99.90;;;;;;5071007;28;20485;-59
2021/07/28 00:25:42;;;;;;;1.60;1.10;;;21.40;99.90;;;;;;5072955;28;20774;-59
2021/07/28 00:28:11;;;;;;;1.70;1.30;;;21.60;99.90;;;;;;5073986;28;20735;-60
2021/07/28 00:30:38;;;;;;;1.20;1.00;;;21.70;99.90;;;;;;5073544;28;20507;-59
2021/07/28 00:33:05;;;;;;;1.60;1.10;;;21.60;99.90;;;;;;5074066;28;20457;-59
2021/07/28 00:35:32;;;;;;;1.70;1.00;;;21.50;99.90;;;;;;5073494;28;20441;-59
2021/07/28 00:38:04;;;;;;;2.33;1.10;;;21.40;99.90;;;;;;5073116;28;20840;-60
2021/07/28 00:40:30;;;;;;;1.33;1.10;;;21.40;99.90;;;;;;5072548;28;20466;-60
2021/07/28 00:43:11;;;;;;;1.90;1.20;;;21.60;99.90;;;;;;5073167;28;20450;-59
2021/07/28 00:45:39;;;;;;;1.40;1.10;;;21.70;99.90;;;;;;5074072;28;20422;-60
2021/07/28 00:48:07;;;;;;;2.47;1.20;;;21.50;99.90;;;;;;5072429;28;20462;-59
2021/07/28 00:50:35;;;;;;;1.40;1.10;;;21.30;99.90;;;;;;5072776;28;20942;-59
2021/07/28 00:53:02;;;;;;;1.73;1.20;;;21.30;99.90;;;;;;5072277;28;20846;-60
2021/07/28 00:55:31;;;;;;;1.77;1.00;;;21.30;99.90;;;;;;5072730;28;20495;-59
2021/07/28 00:58:00;;;;;;;1.33;1.00;;;21.40;99.90;;;;;;5071821;28;20415;-59
2021/07/28 01:00:29;;;;;;;1.40;0.90;;;21.20;99.90;;;;;;5072274;28;20874;-59
2021/07/28 01:02:56;;;;;;;1.50;0.90;;;21.30;99.90;;;;;;5073522;28;20720;-59
2021/07/28 01:05:23;;;;;;;1.40;1.00;;;21.30;99.90;;;;;;5075198;28;20426;-59
2021/07/28 01:07:50;;;;;;;1.30;0.90;;;21.30;99.90;;;;;;5075128;28;20880;-58
2021/07/28 01:10:17;;;;;;;1.30;1.00;;;21.30;99.90;;;;;;5075141;28;20742;-59
2021/07/28 01:12:46;;;;;;;1.30;1.00;;;21.30;99.90;;;;;;5075099;28;20430;-60
2021/07/28 01:15:22;;;;;;;1.30;1.00;;;21.10;99.90;;;;;;5074499;28;20439;-59
2021/07/28 01:17:51;;;;;;;1.35;1.00;;;21.00;99.90;;;;;;5074487;28;20426;-59
2021/07/28 01:20:24;;;;;;;1.40;1.10;;;20.90;99.90;;;;;;5074398;28;20429;-58
2021/07/28 01:22:55;;;;;;;1.30;1.00;;;20.70;99.90;;;;;;5074626;28;20428;-58
2021/07/28 01:25:24;;;;;;;1.40;1.08;;;20.70;99.90;;;;;;5074503;28;20511;-58
2021/07/28 01:27:52;;;;;;;1.40;1.00;;;20.70;99.90;;;;;;5074440;28;20527;-57
2021/07/28 01:30:19;;;;;;;1.80;1.40;;;20.70;99.90;;;;;;5074745;28;20403;-59
2021/07/28 01:32:47;;;;;;;1.60;1.10;;;20.50;99.90;;;;;;5074721;28;20428;-58
2021/07/28 01:35:16;;;;;;;1.40;1.00;;;20.40;99.90;;;;;;5075006;28;20438;-58
2021/07/28 01:37:45;;;;;;;1.40;1.00;;;20.50;99.90;;;;;;5075080;28;20427;-59
2021/07/28 01:40:14;;;;;;;1.58;1.10;;;20.70;99.90;;;;;;5075080;28;20438;-59
2021/07/28 01:42:43;;;;;;;1.50;1.20;;;20.80;99.90;;;;;;5075016;28;20430;-59
2021/07/28 01:45:11;;;;;;;1.40;1.00;;;20.80;99.90;;;;;;5074449;28;20437;-59
2021/07/28 01:47:38;;;;;;;1.70;1.15;;;20.70;99.90;;;;;;5074373;28;20435;-58
2021/07/28 01:50:08;;;;;;;1.52;1.00;;;20.80;99.90;;;;;;5074467;28;20432;-58
2021/07/28 01:52:35;;;;;;;1.35;1.00;;;20.60;99.90;;;;;;5074716;28;20836;-58
2021/07/28 01:55:02;;;;;;;1.75;1.20;;;20.50;99.90;;;;;;5074796;28;20427;-57
2021/07/28 01:57:29;;;;;;;2.50;1.10;;;20.30;99.90;;;;;;5074199;28;20451;-58
2021/07/28 02:00:00;;;;;;;1.75;1.10;;;20.20;99.90;;;;;;5074185;28;20423;-57
2021/07/28 02:02:31;;;;;;;2.40;1.10;;;20.00;99.90;;;;;;5074685;28;20500;-59
2021/07/28 02:04:58;;;;;;;1.83;1.20;;;19.90;99.90;;;;;;5074601;28;20439;-59
2021/07/28 02:07:26;;;;;;;1.95;1.00;;;19.60;99.90;;;;;;5074632;28;20435;-59
2021/07/28 02:09:53;;;;;;;1.90;1.10;;;19.50;99.90;;;;;;5073742;28;20426;-58
2021/07/28 02:12:20;;;;;;;2.10;1.27;;;19.40;99.90;;;;;;5073966;28;20415;-61
2021/07/28 02:14:47;;;;;;;1.85;1.20;;;19.40;99.90;;;;;;5075955;28;20703;-59
2021/07/28 02:17:15;;;;;;;1.50;1.20;;;19.20;99.90;;;;;;5076973;28;20423;-59
2021/07/28 02:19:42;;;;;;;1.95;1.40;;;19.20;99.90;;;;;;5076147;28;20711;-59
2021/07/28 02:22:11;;;;;;;2.15;1.20;;;19.10;99.90;;;;;;5076239;28;20451;-60
2021/07/28 02:24:38;;;;;;;1.80;1.40;;;19.10;99.90;;;;;;5075959;28;20477;-60
2021/07/28 02:27:06;;;;;;;1.73;1.20;;;19.20;99.90;;;;;;5076258;28;20423;-59
2021/07/28 02:29:33;;;;;;;1.70;1.20;;;19.20;99.90;;;;;;5076377;28;20420;-59
2021/07/28 02:32:01;;;;;;;1.58;1.30;;;19.20;99.90;;;;;;5076943;28;20470;-59
2021/07/28 02:34:30;;;;;;;1.58;1.20;;;19.20;99.90;;;;;;5078031;28;20848;-59
2021/07/28 02:36:57;;;;;;;1.92;1.20;;;19.20;99.90;;;;;;5078025;28;20434;-59
2021/07/28 02:39:23;;;;;;;1.60;1.10;;;19.20;99.90;;;;;;5077928;28;20411;-59
2021/07/28 02:41:50;;;;;;;2.00;1.10;;;19.20;99.90;;;;;;5076781;28;20512;-59
2021/07/28 02:44:18;;;;;;;1.52;1.10;;;19.20;99.90;;;;;;5075839;28;20426;-59
2021/07/28 02:46:45;;;;;;;1.73;1.13;;;19.20;99.90;;;;;;5076233;28;20427;-60
2021/07/28 02:49:11;;;;;;;1.77;1.10;;;19.20;99.90;;;;;;5076393;28;20427;-59
2021/07/28 02:51:39;;;;;;;2.90;1.10;;;19.30;99.90;;;;;;5076340;28;20435;-59
2021/07/28 02:54:08;;;;;;;1.80;1.03;;;19.20;99.90;;;;;;5075537;28;20423;-59
2021/07/28 02:56:35;;;;;;;1.50;0.90;;;19.10;99.90;;;;;;5076774;28;20431;-59
2021/07/28 02:59:01;;;;;;;1.50;1.10;;;19.20;99.90;;;;;;5077684;28;20415;-59
2021/07/28 03:01:28;;;;;;;1.50;1.10;;;19.20;99.90;;;;;;5077856;28;20455;-60
2021/07/28 03:03:55;;;;;;;1.40;1.00;;;19.10;99.90;;;;;;5077832;28;20446;-60
2021/07/28 03:06:22;;;;;;;1.60;1.00;;;19.10;99.90;;;;;;5077757;28;20541;-59
2021/07/28 03:08:50;;;;;;;1.40;1.00;;;19.20;99.90;;;;;;5077537;28;20432;-60
2021/07/28 03:11:17;;;;;;;1.80;1.10;;;19.20;99.90;;;;;;5077595;28;20831;-60
2021/07/28 03:13:44;;;;;;;1.50;1.00;;;19.20;99.90;;;;;;5076965;28;20425;-61
2021/07/28 03:16:11;;;;;;;1.10;0.90;;;19.20;99.90;;;;;;5076216;28;20510;-60
2021/07/28 03:18:38;;;;;;;1.90;1.00;;;19.10;99.90;;;;;;5076639;28;20420;-59
2021/07/28 03:21:05;;;;;;;1.98;0.90;;;19.10;99.90;;;;;;5076303;28;20532;-60
2021/07/28 03:23:32;;;;;;;1.40;1.00;;;19.10;99.90;;;;;;5076180;28;20481;-59
2021/07/28 03:26:00;;;;;;;1.30;1.10;;;19.10;99.90;;;;;;5075119;28;20427;-59
2021/07/28 03:28:27;;;;;;;1.30;1.00;;;19.00;99.90;;;;;;5075790;28;20769;-60
2021/07/28 03:30:54;;;;;;;1.60;1.00;;;18.90;99.90;;;;;;5076678;28;20852;-59
2021/07/28 03:33:21;;;;;;;1.45;1.00;;;18.90;99.90;;;;;;5076194;28;20426;-60
2021/07/28 03:35:48;;;;;;;1.60;1.10;;;18.80;99.90;;;;;;5075754;28;20434;-60
2021/07/28 03:38:16;;;;;;;1.20;0.95;;;18.90;99.90;;;;;;5076182;28;20415;-60
2021/07/28 03:40:42;;;;;;;1.70;1.00;;;19.10;99.90;;;;;;5076688;28;20427;-60
2021/07/28 03:43:11;;;;;;;1.50;1.00;;;19.10;99.90;;;;;;5076631;28;20446;-60
2021/07/28 03:45:37;;;;;;;1.30;1.00;;;19.10;99.90;;;;;;5076520;28;20434;-60
2021/07/28 03:48:05;;;;;;;1.40;1.00;;;19.00;99.90;;;;;;5076528;28;20434;-60
2021/07/28 03:50:32;;;;;;;1.38;0.90;;;19.00;99.90;;;;;;5076411;28;20467;-60
2021/07/28 03:53:01;;;;;;;1.10;0.93;;;19.10;99.90;;;;;;5074450;28;20896;-60
2021/07/28 03:55:28;;;;;;;1.30;1.00;;;19.20;99.90;;;;;;5074682;28;20427;-60
2021/07/28 03:57:55;;;;;;;1.77;0.82;;;19.30;99.90;;;;;;5075347;28;20419;-60
2021/07/28 04:00:23;;;;;;;1.70;1.00;;;19.70;99.90;;;;;;5074970;28;20485;-60
2021/07/28 04:02:50;;;;;;;1.50;1.00;;;19.70;99.90;;;;;;5074874;28;20426;-60
2021/07/28 04:05:17;;;;;;;1.27;0.98;;;19.60;99.90;;;;;;5075126;28;20427;-60
2021/07/28 04:07:45;;;;;;;1.40;1.00;;;19.50;99.90;;;;;;5076143;28;20426;-60
2021/07/28 04:10:13;;;;;;;1.40;0.90;;;19.70;99.90;;;;;;5076006;28;20717;-60
2021/07/28 04:12:39;;;;;;;1.70;1.00;;;19.90;99.90;;;;;;5075891;28;20426;-60
2021/07/28 04:15:07;;;;;;;1.20;0.90;;;19.90;99.90;;;;;;5075786;28;20424;-60
2021/07/28 04:17:35;;;;;;;1.30;0.90;;;19.80;99.90;;;;;;5076064;28;20426;-59
2021/07/28 04:20:02;;;;;;;1.27;1.00;;;19.60;99.90;;;;;;5074507;28;20428;-60
2021/07/28 04:22:29;;;;;;;2.50;1.00;;;19.40;99.90;;;;;;5073606;28;20515;-61
2021/07/28 04:24:56;;;;;;;2.20;0.90;;;19.20;99.90;;;;;;5074890;28;20430;-60
2021/07/28 04:27:25;;;;;;;1.38;0.90;;;19.30;99.90;;;;;;5074154;28;20426;-62
2021/07/28 04:29:52;;;;;;;1.20;0.80;;;19.60;99.90;;;;;;5074252;28;20431;-60
2021/07/28 04:32:19;;;;;;;1.50;1.05;;;19.80;99.90;;;;;;5073919;28;20523;-61
2021/07/28 04:34:47;;;;;;;1.17;0.90;;;20.10;99.90;;;;;;5073150;28;20902;-61
2021/07/28 04:37:15;;;;;;;1.40;0.90;;;20.20;99.90;;;;;;5070645;28;20431;-61
2021/07/28 04:39:42;;;;;;;1.67;0.90;;;20.30;99.90;;;;;;5073433;28;20423;-61
2021/07/28 04:42:09;;;;;;;1.17;0.90;;;20.30;99.90;;;;;;5073252;28;20428;-61
2021/07/28 04:44:36;;;;;;;1.60;0.90;;;20.20;99.90;;;;;;5072356;28;20419;-61
2021/07/28 04:47:03;;;;;;;1.10;0.90;;;20.10;99.90;;;;;;5073665;28;20438;-61
2021/07/28 04:49:33;;;;;;;1.70;1.10;;;20.10;99.90;;;;;;5071500;28;20806;-61
2021/07/28 04:52:01;;;;;;;1.70;0.90;;;20.10;99.90;;;;;;5073407;28;20462;-61
2021/07/28 04:54:36;;;;;;;1.80;1.00;;;20.20;99.90;;;;;;5089858;28;20876;-61
2021/07/28 04:57:04;;;;;;;1.55;0.90;;;20.20;99.90;;;;;;5080113;28;20462;-58
2021/07/28 04:59:31;;;;;;;1.75;1.00;;;20.10;99.90;;;;;;5072784;28;20427;-58
2021/07/28 05:01:58;;;;;;;1.80;0.90;;;20.20;99.90;;;;;;5071952;28;20424;-58
2021/07/28 05:04:25;;;;;;;1.95;1.00;;;20.30;99.90;;;;;;5075064;28;20494;-58
2021/07/28 05:06:52;;;;;;;1.83;0.90;;;20.50;99.90;;;;;;5078245;28;20439;-58
2021/07/28 05:09:20;;;;;;;1.60;0.97;;;20.60;99.90;;;;;;5074788;28;20425;-58
2021/07/28 05:11:47;;;;;;;2.13;1.00;;;20.70;99.90;;;;;;5080996;28;20430;-58
2021/07/28 05:14:14;;;;;;;1.48;1.00;;;20.50;99.90;;;;;;5077128;28;20444;-58
2021/07/28 05:16:40;;;;;;;1.50;1.00;;;20.50;99.90;;;;;;5079506;28;20916;-57
2021/07/28 05:19:07;;;;;;;1.08;0.90;;;20.30;99.90;;;;;;5074952;28;20422;-58
2021/07/28 05:21:34;;;;;;;2.00;1.13;;;20.10;99.90;;;;;;5070787;28;20462;-58
2021/07/28 05:24:01;;;;;;;1.75;1.10;;;19.90;99.90;;;;;;5075962;28;20433;-58
2021/07/28 05:26:30;;;;;;;2.30;0.97;;;19.70;99.90;;;;;;5075978;28;20534;-59
2021/07/28 05:28:56;;;;;;;2.10;1.00;;;19.60;99.90;;;;;;5076792;28;20433;-59
2021/07/28 05:31:23;;;;;;;1.50;0.90;;;19.60;99.90;;;;;;5088313;28;20432;-59
2021/07/28 05:33:50;;;;;;;1.90;1.00;;;19.60;99.90;;;;;;5090257;28;20417;-59
2021/07/28 05:36:17;;;;;;;1.40;1.00;;;19.80;99.90;;;;;;5082867;28;20901;-59
2021/07/28 05:38:44;;;;;;;1.20;1.00;;;19.80;99.90;;;;;;5077332;28;20452;-58
2021/07/28 05:41:10;;;;;;;1.20;0.88;;;20.10;99.90;;;;;;5076199;28;20422;-59
2021/07/28 05:43:39;;;;;;;1.27;1.00;;;20.30;99.90;;;;;;5077321;28;20427;-59
2021/07/28 05:46:06;;;;;;;1.90;1.00;;;20.40;99.90;;;;;;5078486;28;20418;-59
2021/07/28 05:48:32;;;;;;;2.20;0.95;;;20.30;99.90;;;;;;5079068;28;20463;-58
2021/07/28 05:50:59;;;;;;;1.30;0.90;;;20.20;99.90;;;;;;5077815;28;20921;-59
2021/07/28 05:53:27;;;;;;;2.13;1.00;;;20.10;99.90;;;;;;5075820;28;20752;-59
2021/07/28 05:55:55;;;;;;;1.20;0.90;;;20.20;99.90;;;;;;5080872;28;20440;-59
2021/07/28 05:58:21;;;;;;;1.23;0.90;;;20.40;99.90;;;;;;5071147;28;21412;-59
2021/07/28 06:00:50;;;;;;;1.48;1.00;;;20.40;99.90;;;;;;5083656;28;20923;-59
2021/07/28 06:03:17;;;;;;;1.30;0.80;;;20.40;99.90;;;;;;5090791;28;20428;-60
2021/07/28 06:05:44;;;;;;;1.17;0.90;;;20.40;99.90;;;;;;5091412;28;20516;-60
2021/07/28 06:08:10;;;;;;;1.38;0.90;;;20.30;99.90;;;;;;5088731;28;20512;-60
2021/07/28 06:10:37;;;;;;;1.42;1.00;;;20.30;99.90;;;;;;5091016;28;20538;-59
2021/07/28 06:13:04;;;;;;;1.70;1.10;;;20.30;99.90;;;;;;5093106;28;20433;-60
2021/07/28 06:15:31;;;;;;;1.50;0.95;;;20.30;99.90;;;;;;5090812;28;20432;-60
2021/07/28 06:17:59;;;;;;;1.63;1.00;;;20.30;99.90;;;;;;5090717;28;20418;-59
2021/07/28 06:20:26;;;;;;;1.70;0.90;;;20.30;99.90;;;;;;5089085;28;20452;-60
2021/07/28 06:22:53;;;;;;;1.20;0.90;;;20.50;99.90;;;;;;5091078;28;20837;-59
2021/07/28 06:25:20;;;;;;;1.50;0.90;;;20.60;99.90;;;;;;5091664;28;20465;-59
2021/07/28 06:27:49;;;;;;;1.40;1.00;;;20.60;99.90;;;;;;5090426;28;20889;-60
2021/07/28 06:30:17;;;;;;;1.40;0.90;;;20.40;99.90;;;;;;5088760;28;20430;-59
2021/07/28 06:32:44;;;;;;;1.90;0.90;;;20.30;99.90;;;;;;5079207;28;20606;-59
2021/07/28 06:35:13;;;;;;;2.80;1.05;;;20.20;99.90;;;;;;5084454;28;20634;-59
2021/07/28 06:37:40;;;;;;;1.40;0.90;;;20.30;99.90;;;;;;5091019;28;20417;-60
2021/07/28 06:40:08;;;;;;;1.90;1.10;;;20.40;99.90;;;;;;5089943;28;20480;-60
2021/07/28 06:42:35;;;;;;;3.15;0.90;;;20.50;99.90;;;;;;5090326;28;20724;-60
2021/07/28 06:45:02;;;;;;;1.63;1.00;;;20.30;99.90;;;;;;5089207;28;20688;-59
2021/07/28 06:47:29;;;;;;;2.40;1.20;;;20.10;99.90;;;;;;5090863;28;20433;-60
2021/07/28 06:49:56;;;;;;;1.60;1.00;;;20.10;99.90;;;;;;5091594;28;20800;-59
2021/07/28 06:52:24;;;;;;;1.88;1.10;;;20.00;99.90;;;;;;5090755;28;20432;-59
2021/07/28 06:54:51;;;;;;;1.30;1.00;;;19.90;99.90;;;;;;5087822;28;20422;-60
2021/07/28 06:57:18;;;;;;;1.85;1.20;;;19.90;99.90;;;;;;5088191;28;20514;-59
2021/07/28 06:59:45;;;;;;;1.40;1.10;;;19.80;99.90;;;;;;5088693;28;20414;-58
2021/07/28 07:02:12;;;;;;;1.60;1.10;;;19.60;99.90;;;;;;5092011;28;20432;-60
2021/07/28 07:04:39;;;;;;;2.42;1.15;;;19.50;99.90;;;;;;5093167;28;20859;-60
2021/07/28 07:07:06;;;;;;;1.20;0.95;;;19.60;99.90;;;;;;5093834;28;20421;-60
2021/07/28 07:09:34;;;;;;;1.80;1.10;;;19.50;99.90;;;;;;5094888;28;20426;-61
2021/07/28 07:12:01;;;;;;;2.10;1.00;;;19.50;99.90;;;;;;5094931;28;20751;-60
2021/07/28 07:14:29;;;;;;;1.52;1.00;;;19.50;99.90;;;;;;5092613;28;20801;-61
2021/07/28 07:16:57;;;;;;;2.20;1.10;;;19.60;99.90;;;;;;5093835;28;20438;-63
2021/07/28 07:19:25;;;;;;;2.10;1.20;;;19.50;99.90;;;;;;5093561;28;20414;-61
2021/07/28 07:21:52;;;;;;;1.50;1.00;;;19.30;99.90;;;;;;5091893;28;20430;-61
2021/07/28 07:24:19;;;;;;;1.80;1.20;;;19.40;99.90;;;;;;5091055;28;20849;-61
2021/07/28 07:26:47;;;;;;;2.47;1.75;;;19.50;99.90;;;;;;5091462;28;20528;-61
2021/07/28 07:29:14;;;;;;;2.22;1.10;;;19.40;99.90;;;;;;5093164;28;20432;-61
2021/07/28 07:31:42;;;;;;;1.70;1.00;;;19.30;99.90;;;;;;5091784;28;20430;-60
2021/07/28 07:34:09;;;;;;;1.37;0.90;;;19.40;99.90;;;;;;5092874;28;20433;-60
2021/07/28 07:36:36;;;;;;;1.70;1.10;;;19.70;99.90;;;;;;5074019;28;20886;-62
2021/07/28 07:39:04;;;;;;;2.70;1.10;;;19.80;99.90;;;;;;5073348;28;20415;-61
2021/07/28 07:41:31;;;;;;;3.80;1.00;;;19.70;99.90;;;;;;5075190;28;20699;-62
2021/07/28 07:44:00;;;;;;;1.60;1.02;;;19.70;99.90;;;;;;5075547;28;20415;-61
2021/07/28 07:46:28;;;;;;;2.60;1.15;;;19.70;99.90;;;;;;5074199;28;20839;-62
2021/07/28 07:48:56;;;;;;;2.17;1.00;;;19.70;99.90;;;;;;5072047;28;20532;-61
2021/07/28 07:51:23;;;;;;;1.83;1.00;;;19.90;99.90;;;;;;5074489;28;20862;-62
2021/07/28 07:53:50;;;;;;;2.25;1.00;;;19.90;99.90;;;;;;5074387;28;20708;-62
2021/07/28 07:56:16;;;;;;;3.33;1.10;;;19.90;99.90;;;;;;5075263;28;20493;-62
2021/07/28 07:58:43;;;;;;;2.10;1.10;;;19.80;99.90;;;;;;5073380;28;20517;-62
2021/07/28 08:01:13;;;;;;;1.50;1.10;;;19.70;99.90;;;;;;5072310;28;20427;-62
2021/07/28 08:03:54;;;;;;;2.20;1.05;;;19.60;99.90;;;;;;5072746;28;20430;-61
2021/07/28 08:06:22;;;;;;;2.50;1.05;;;19.70;99.90;;;;;;5089616;28;20982;-62
2021/07/28 08:08:49;;;;;;;1.85;1.00;;;19.70;99.90;;;;;;5091972;28;20425;-61
2021/07/28 08:11:15;;;;;;;1.73;0.90;;;19.70;99.90;;;;;;5089593;28;20421;-61
2021/07/28 08:13:43;;;;;;;1.50;1.00;;;19.60;99.90;;;;;;5089937;28;20414;-61
2021/07/28 08:16:13;;;;;;;1.70;1.10;;;19.40;99.90;;;;;;5089875;28;20436;-61
2021/07/28 08:18:40;;;;;;;2.55;1.15;;;19.40;99.90;;;;;;5088762;28;20897;-63
2021/07/28 08:21:09;;;;;;;1.70;1.10;;;19.60;99.90;;;;;;5090725;28;20707;-62
2021/07/28 08:23:36;;;;;;;1.50;1.00;;;19.80;99.90;;;;;;5091927;28;20721;-63
2021/07/28 08:26:03;;;;;;;1.30;1.17;;;19.90;99.90;;;;;;5094094;28;20429;-63
2021/07/28 08:28:30;;;;;;;2.10;1.17;;;19.90;99.90;;;;;;5094501;28;20413;-60
2021/07/28 08:30:57;;;;;;;1.80;1.00;;;19.90;99.90;;;;;;5079099;28;20801;-61
2021/07/28 08:33:26;;;;;;;1.48;1.20;;;20.00;99.90;;;;;;5082896;28;20981;-60
2021/07/28 08:35:55;;;;;;;1.40;0.90;;;20.20;99.90;;;;;;5094827;28;20432;-60
2021/07/28 08:38:23;;;;;;;1.90;0.90;;;20.10;99.90;;;;;;5079691;28;20446;-60
2021/07/28 08:40:55;;;;;;;1.90;1.00;;;20.10;99.90;;;;;;5072990;28;20431;-59
2021/07/28 08:43:25;;;;;;;2.42;1.02;;;20.40;99.90;;;;;;5084955;28;20418;-60
2021/07/28 08:45:53;;;;;;;1.80;1.00;;;20.30;99.90;;;;;;5094064;28;20417;-59
2021/07/28 08:48:22;;;;;;;1.75;1.00;;;20.20;99.90;;;;;;5093236;28;20497;-59
2021/07/28 08:50:53;;;;;;;1.80;1.00;;;20.20;99.90;;;;;;5091248;28;20441;-59
2021/07/28 08:53:20;;;;;;;1.23;0.90;;;20.20;99.90;;;;;;5091023;28;20418;-59
2021/07/28 08:55:48;;;;;;;1.70;1.00;;;20.10;99.90;;;;;;5089271;28;20426;-59
2021/07/28 08:58:15;;;;;;;1.65;0.90;;;20.20;99.90;;;;;;5090645;28;20440;-59
2021/07/28 09:00:43;;;;;;;1.30;1.00;;;20.30;99.90;;;;;;5089291;28;20499;-59
2021/07/28 09:03:10;;;;;;;1.80;1.00;;;20.30;99.90;;;;;;5091141;28;20417;-60
2021/07/28 09:05:43;;;;;;;1.90;1.00;;;20.20;99.90;;;;;;5088737;28;20428;-61
2021/07/28 09:08:23;;;;;;;1.40;1.10;;;20.00;99.90;;;;;;5092779;28;20867;-59
2021/07/28 09:10:51;;;;;;;1.73;1.10;;;20.10;99.90;;;;;;5091419;28;20434;-59
2021/07/28 09:13:30;;;;;;;2.33;1.70;;;20.10;99.90;;;;;;5081123;28;20483;-59
2021/07/28 09:15:58;;;;;;;3.25;1.10;;;20.30;99.90;;;;;;5078408;28;20432;-59
2021/07/28 09:18:34;;;;;;;1.60;1.00;;;20.40;99.90;;;;;;5089652;28;20497;-59
2021/07/28 09:21:02;;;;;;;1.40;1.00;;;20.70;99.90;;;;;;5089746;28;20941;-59
2021/07/28 09:23:41;;;;;;;1.60;1.00;;;21.00;99.90;;;;;;5087215;28;20438;-59
2021/07/28 09:26:32;;;;;;;1.20;0.90;;;21.00;99.90;;;;;;5087448;28;20564;-59
2021/07/28 09:29:07;;;;;;;1.40;0.90;;;21.20;99.90;;;;;;5088604;28;20414;-59
2021/07/28 09:31:36;;;;;;;1.13;0.80;;;21.20;99.90;;;;;;5090553;28;20440;-58
2021/07/28 09:34:31;;;;;;;1.20;0.90;;;21.10;99.90;;;;;;5087580;28;20731;-60
2021/07/28 09:36:59;;;;;;;1.75;0.90;;;21.10;99.90;;;;;;5083399;28;20865;-58
2021/07/28 09:39:29;;;;;;;1.67;0.90;;;21.20;99.90;;;;;;5067969;28;20432;-58
2021/07/28 09:41:57;;;;;;;2.40;0.80;;;21.30;99.90;;;;;;5067320;28;20423;-59
2021/07/28 09:44:26;;;;;;;1.50;0.88;;;21.20;99.90;;;;;;5066617;28;20426;-58
2021/07/28 09:47:05;;;;;;;1.10;0.90;;;21.30;99.90;;;;;;5065382;28;20442;-58
2021/07/28 09:49:32;;;;;;;1.20;0.90;;;21.20;99.90;;;;;;5065327;28;20430;-58
2021/07/28 09:51:59;;;;;;;1.80;0.90;;;21.20;99.90;;;;;;5065065;28;20427;-57
2021/07/28 09:54:30;;;;;;;1.20;0.90;;;21.30;99.90;;;;;;5064977;28;20425;-57
2021/07/28 09:56:58;;;;;;;1.30;0.80;;;21.20;99.90;;;;;;5066497;28;20423;-58
2021/07/28 09:59:25;;;;;;;1.70;0.82;;;21.40;99.90;;;;;;5072632;28;20852;-57
2021/07/28 10:01:53;;;;;;;1.55;1.00;;;21.40;99.90;;;;;;5088003;28;20421;-57
2021/07/28 10:04:21;;;;;;;1.07;0.87;;;21.50;99.90;;;;;;5087675;28;20780;-57
2021/07/28 10:06:59;;;;;;;1.20;0.90;;;21.70;99.90;;;;;;5084255;28;20425;-57
2021/07/28 10:09:33;;;;;;;1.15;0.80;;;21.70;99.90;;;;;;5092819;28;20444;-57
2021/07/28 10:12:00;;;;;;;1.60;1.00;;;22.00;99.90;;;;;;5079613;28;20504;-57
2021/07/28 10:14:28;;;;;;;1.20;0.90;;;22.00;99.90;;;;;;5089900;28;20804;-58
2021/07/28 10:16:54;;;;;;;1.55;0.80;;;22.00;99.90;;;;;;5088708;28;20424;-58
2021/07/28 10:19:22;;;;;;;1.83;1.10;;;22.00;99.90;;;;;;5070348;28;20428;-58
2021/07/28 10:21:50;;;;;;;1.08;0.80;;;21.90;99.90;;;;;;5070505;28;20717;-58
2021/07/28 10:24:17;;;;;;;1.50;0.90;;;21.90;99.90;;;;;;5070542;28;22098;-58
2021/07/28 10:26:48;;;;;;;1.40;0.80;;;21.90;99.90;;;;;;5080842;28;20428;-58
2021/07/28 10:29:16;;;;;;;1.70;0.80;;;22.10;99.90;;;;;;5083997;28;20615;-58
2021/07/28 10:31:45;;;;;;;1.40;0.80;;;22.00;99.90;;;;;;5088703;28;20426;-59
2021/07/28 10:34:23;;;;;;;1.90;0.80;;;22.20;99.90;;;;;;5084738;28;20421;-59
2021/07/28 10:36:52;;;;;;;1.30;0.80;;;22.40;99.90;;;;;;5082916;28;20413;-60
2021/07/28 10:39:38;;;;;;;1.13;0.80;;;22.50;99.90;;;;;;5085526;28;20424;-59
2021/07/28 10:42:07;;;;;;;1.10;0.80;;;22.50;99.90;;;;;;5071641;28;20865;-60
2021/07/28 10:45:02;;;;;;;1.60;0.95;;;22.40;99.90;;;;;;5088823;28;20417;-59
2021/07/28 10:47:40;;;;;;;1.20;0.90;;;22.60;99.90;;;;;;5091404;28;20580;-59
2021/07/28 10:50:09;;;;;;;1.20;0.80;;;22.60;99.90;;;;;;5090536;28;20730;-60
2021/07/28 10:52:44;;;;;;;1.10;0.70;;;22.40;99.90;;;;;;5088037;28;20692;-59
2021/07/28 10:55:16;;;;;;;1.42;0.80;;;22.50;99.90;;;;;;5081645;28;20767;-59
2021/07/28 10:58:22;;;;;;;1.10;0.80;;;22.60;99.90;;;;;;5073023;28;20434;-59
2021/07/28 11:01:00;;;;;;;1.05;0.70;;;22.70;99.90;;;;;;5072563;28;20443;-60
2021/07/28 11:03:39;;;;;;;1.40;0.80;;;22.60;99.90;;;;;;5072465;28;20809;-60
2021/07/28 11:06:26;;;;;;;1.40;0.73;;;22.60;99.90;;;;;;5072356;28;20835;-62
2021/07/28 11:08:54;;;;;;;1.40;0.80;;;22.80;99.90;;;;;;5073851;28;20457;-62
2021/07/28 11:11:22;;;;;;;1.87;0.80;;;22.70;99.90;;;;;;5073778;28;20423;-62
2021/07/28 11:13:50;;;;;;;2.90;0.80;;;22.60;99.90;;;;;;5081100;28;20436;-62
2021/07/28 11:16:18;;;;;;;1.20;0.90;;;22.60;99.90;;;;;;5077178;28;20459;-62
2021/07/28 11:18:46;;;;;;;1.20;0.80;;;22.70;99.90;;;;;;5076038;28;20517;-63
2021/07/28 11:21:15;;;;;;;1.27;0.80;;;23.10;99.90;;;;;;5073549;28;20463;-62
2021/07/28 11:23:51;;;;;;;1.10;0.80;;;23.60;99.90;;;;;;5095367;28;20461;-61
2021/07/28 11:26:23;;;;;;;1.77;0.80;;;24.10;99.90;;;;;;5092977;28;20414;-61
2021/07/28 11:28:53;;;;;;;1.90;0.80;;;24.60;99.90;;;;;;5078482;28;20470;-62
2021/07/28 11:31:32;;;;;;;2.10;0.80;;;24.30;99.90;;;;;;5078423;28;20438;-61
2021/07/28 11:34:14;;;;;;;1.27;0.80;;;24.00;99.90;;;;;;5072556;28;20435;-61
2021/07/28 11:36:43;;;;;;;1.30;0.80;;;24.00;99.90;;;;;;5089441;28;20495;-61
2021/07/28 11:39:12;;;;;;;1.20;0.80;;;24.30;99.90;;;;;;5075395;28;20442;-62
2021/07/28 11:41:39;;;;;;;1.50;0.80;;;24.70;99.90;;;;;;5077986;28;20421;-61
2021/07/28 11:44:06;;;;;;;1.90;0.70;;;25.10;99.90;;;;;;5091045;28;20429;-62
2021/07/28 11:46:35;;;;;;;1.50;0.80;;;25.20;99.90;;;;;;5081602;28;20836;-62
2021/07/28 11:49:06;;;;;;;1.30;0.80;;;25.60;99.90;;;;;;5074189;28;20428;-62
2021/07/28 11:51:35;;;;;;;1.05;0.80;;;25.50;99.90;;;;;;5092304;28;20546;-62
2021/07/28 11:54:13;;;;;;;1.27;0.90;;;25.40;99.90;;;;;;5094256;28;20437;-62
2021/07/28 11:56:46;;;;;;;1.00;0.70;;;25.60;99.90;;;;;;5095363;28;20495;-62
2021/07/28 11:59:13;;;;;;;1.20;0.80;;;26.10;99.90;;;;;;5094030;28;20497;-62
2021/07/28 12:01:49;;;;;;;1.10;0.80;;;26.00;99.90;;;;;;5093475;28;20425;-62
2021/07/28 12:04:21;;;;;;;1.90;0.80;;;26.10;99.90;;;;;;5092623;28;20421;-61
2021/07/28 12:06:49;;;;;;;1.50;0.80;;;26.20;99.90;;;;;;5091426;28;20740;-60
2021/07/28 12:09:21;;;;;;;1.20;0.73;;;26.30;99.90;;;;;;5091186;28;20421;-60
2021/07/28 12:11:59;;;;;;;1.80;0.80;;;25.80;99.90;;;;;;5091954;28;20517;-59
2021/07/28 12:14:31;;;;;;;1.10;0.70;;;26.20;99.90;;;;;;5089665;28;20446;-62
2021/07/28 12:17:03;;;;;;;1.00;0.68;;;26.00;99.90;;;;;;5091074;28;20429;-62
2021/07/28 12:19:33;;;;;;;1.30;0.90;;;25.70;99.90;;;;;;5093022;28;20517;-62
2021/07/28 12:22:03;;;;;;;1.00;0.80;;;25.80;99.90;;;;;;5093954;28;20449;-59
2021/07/28 12:24:45;;;;;;;1.20;0.70;;;26.20;99.90;;;;;;5097392;28;20495;-66
2021/07/28 12:28:03;;;;;;;1.15;0.80;;;26.50;99.90;;;;;;5112544;28;20888;-66
2021/07/28 12:30:33;;;;;;;1.30;0.70;;;26.60;99.90;;;;;;5071297;28;20514;-65
2021/07/28 12:33:07;;;;;;;1.10;0.70;;;25.90;99.90;;;;;;5073076;28;20892;-66
2021/07/28 12:35:45;;;;;;;1.20;0.80;;;25.90;99.90;;;;;;5074334;28;20785;-66
2021/07/28 12:38:14;;;;;;;1.05;0.80;;;26.00;99.90;;;;;;5076502;28;20431;-64
2021/07/28 12:40:44;;;;;;;1.30;0.70;;;25.90;99.90;;;;;;5076229;28;20903;-65
2021/07/28 12:43:12;;;;;;;3.10;0.70;;;26.10;99.90;;;;;;5071690;28;20427;-64
2021/07/28 12:45:39;;;;;;;1.00;0.80;;;26.30;99.90;;;;;;5071703;28;20419;-64
2021/07/28 12:48:09;;;;;;;1.30;0.80;;;26.30;99.90;;;;;;5072522;28;20518;-65
2021/07/28 12:50:38;;;;;;;1.20;0.80;;;26.10;99.90;;;;;;5071663;28;20436;-65
2021/07/28 12:53:05;;;;;;;1.70;0.77;;;25.70;99.90;;;;;;5073005;28;20434;-65
2021/07/28 12:55:32;;;;;;;1.50;0.80;;;25.80;99.90;;;;;;5070725;28;20481;-66
2021/07/28 12:58:00;;;;;;;1.02;0.70;;;25.70;99.90;;;;;;5070803;28;20498;-65